Time;durP1;ratioP1;P1;durP2;ratioP2;P2;SDS_P1;SDS_P2;PMS_P1;PMS_P2;Temp;Humidity;BMP_temperature;BMP_pressure;BME280_temperature;BME280_humidity;BME280_pressure;Samples;Min_cycle;Max_cycle;Signal;HPM_P1;HPM_P2
2023/06/23 00:01:00;;;;;;;;;;;;;;;22.81;53.46;95787.84;10506201;28;2322;-62
2023/06/23 00:06:03;;;;;;;;;;;;;;;22.79;53.11;95790.00;10502612;28;2077;-62
2023/06/23 00:11:04;;;;;;;;;;;;;;;22.74;52.69;95782.91;10507652;28;1988;-62
2023/06/23 00:16:05;;;;;;;;;;;;;;;22.64;52.45;95783.84;10512988;28;2061;-60
2023/06/23 00:21:06;;;;;;;;;;;;;;;22.59;52.47;95781.25;10515397;28;2081;-62
2023/06/23 00:26:07;;;;;;;;;;;;;;;22.51;52.53;95773.16;10504006;28;2211;-62
2023/06/23 00:31:08;;;;;;;;;;;;;;;22.42;52.68;95769.59;10506798;28;2104;-62
2023/06/23 00:36:08;;;;;;;;;;;;;;;22.40;52.41;95783.06;10503314;28;2053;-62
2023/06/23 00:41:09;;;;;;;;;;;;;;;22.35;52.53;95780.50;10502203;28;4431;-62
2023/06/23 00:46:21;;;;;;;;;;;;;;;22.33;52.48;95795.84;10461494;28;2066;-62
2023/06/23 00:51:22;;;;;;;;;;;;;;;22.34;52.34;95794.00;10503431;28;1942;-62
2023/06/23 00:56:24;;;;;;;;;;;;;;;22.30;52.31;95804.31;10504077;28;1990;-62
2023/06/23 01:01:25;;;;;;;;;;;;;;;22.25;52.53;95819.44;10508432;28;1974;-62
2023/06/23 01:06:28;;;;;;;;;;;;;;;22.19;52.47;95831.16;10504151;28;1993;-62
2023/06/23 01:11:30;;;;;;;;;;;;;;;22.17;51.93;95842.00;10511407;28;1973;-61
2023/06/23 01:16:32;;;;;;;;;;;;;;;22.17;52.20;95822.72;10496993;28;2112;-62
2023/06/23 01:21:33;;;;;;;;;;;;;;;22.11;52.20;95824.63;10505761;28;1945;-61
2023/06/23 01:26:36;;;;;;;;;;;;;;;22.14;51.93;95816.13;10506530;28;1972;-62
2023/06/23 01:31:40;;;;;;;;;;;;;;;22.15;51.80;95801.09;10505693;28;2064;-62
2023/06/23 01:36:44;;;;;;;;;;;;;;;22.08;52.04;95812.00;10504618;28;1970;-61
2023/06/23 01:41:56;;;;;;;;;;;;;;;22.01;51.89;95816.81;10521783;28;4666;-62
2023/06/23 01:46:58;;;;;;;;;;;;;;;21.96;51.34;95824.78;10487195;28;2605;-62
2023/06/23 01:52:00;;;;;;;;;;;;;;;21.98;51.77;95817.38;10494743;28;2130;-62
2023/06/23 01:57:00;;;;;;;;;;;;;;;21.97;51.51;95799.97;10496549;28;2000;-62
2023/06/23 02:02:00;;;;;;;;;;;;;;;21.94;51.83;95805.81;10493792;28;1957;-62
2023/06/23 02:07:00;;;;;;;;;;;;;;;21.93;51.81;95806.88;10496550;28;2021;-62
2023/06/23 02:12:03;;;;;;;;;;;;;;;21.89;51.39;95808.50;10497264;28;1985;-62
2023/06/23 02:17:04;;;;;;;;;;;;;;;21.91;51.71;95816.91;10526828;28;1976;-62
2023/06/23 02:22:06;;;;;;;;;;;;;;;21.93;51.73;95822.69;10492638;28;1896;-62
2023/06/23 02:27:06;;;;;;;;;;;;;;;21.92;51.69;95826.41;10493500;28;2030;-62
2023/06/23 02:32:07;;;;;;;;;;;;;;;21.88;51.68;95823.53;10488336;28;2064;-62
2023/06/23 02:37:09;;;;;;;;;;;;;;;21.91;51.52;95816.16;10510773;28;1953;-62
2023/06/23 02:42:09;;;;;;;;;;;;;;;21.93;51.55;95829.84;10522567;28;4517;-62
2023/06/23 02:47:11;;;;;;;;;;;;;;;21.82;51.53;95831.81;10505988;28;2077;-62
2023/06/23 02:52:11;;;;;;;;;;;;;;;21.83;51.51;95826.25;10469952;28;1985;-62
2023/06/23 02:57:12;;;;;;;;;;;;;;;21.80;52.01;95826.75;10505698;28;1937;-62
2023/06/23 03:02:13;;;;;;;;;;;;;;;21.82;51.98;95819.38;10503979;28;1922;-62
2023/06/23 03:07:14;;;;;;;;;;;;;;;21.83;52.09;95820.16;10496091;28;1953;-62
2023/06/23 03:12:14;;;;;;;;;;;;;;;21.83;52.03;95822.81;10496163;28;1997;-62
2023/06/23 03:17:15;;;;;;;;;;;;;;;21.82;52.12;95819.38;10513006;28;1874;-62
2023/06/23 03:22:19;;;;;;;;;;;;;;;21.78;52.13;95807.00;10525380;28;1934;-62
2023/06/23 03:27:21;;;;;;;;;;;;;;;21.78;52.18;95805.13;10501548;28;1837;-61
2023/06/23 03:32:28;;;;;;;;;;;;;;;21.81;52.32;95806.44;10514849;28;1910;-62
2023/06/23 03:37:29;;;;;;;;;;;;;;;21.80;52.44;95820.72;10514666;28;1957;-62
2023/06/23 03:42:29;;;;;;;;;;;;;;;21.79;52.41;95814.63;10486941;28;4470;-62
2023/06/23 03:47:29;;;;;;;;;;;;;;;21.80;52.64;95826.00;10502683;28;1989;-61
2023/06/23 03:52:30;;;;;;;;;;;;;;;21.77;52.74;95827.31;10515335;28;2005;-62
2023/06/23 03:57:31;;;;;;;;;;;;;;;21.73;52.99;95844.78;10505252;28;1924;-62
2023/06/23 04:02:31;;;;;;;;;;;;;;;21.71;52.99;95849.56;10491030;28;1947;-62
2023/06/23 04:07:31;;;;;;;;;;;;;;;21.71;53.09;95843.47;10486466;28;2016;-62
2023/06/23 04:12:32;;;;;;;;;;;;;;;21.71;53.28;95841.63;10490025;28;2230;-62
2023/06/23 04:17:32;;;;;;;;;;;;;;;21.72;53.57;95855.63;10499559;28;2132;-62
2023/06/23 04:22:32;;;;;;;;;;;;;;;21.72;53.38;95858.25;10515754;28;1950;-62
2023/06/23 04:27:32;;;;;;;;;;;;;;;21.72;53.33;95858.25;10487229;28;1989;-62
2023/06/23 04:32:33;;;;;;;;;;;;;;;21.71;53.49;95861.94;10515800;28;1933;-62
2023/06/23 04:37:37;;;;;;;;;;;;;;;21.70;54.00;95868.31;10486889;28;2278;-61
2023/06/23 04:42:41;;;;;;;;;;;;;;;21.66;54.44;95862.78;10485067;28;4544;-62
2023/06/23 04:47:42;;;;;;;;;;;;;;;21.66;54.49;95872.53;10499219;28;1981;-62
2023/06/23 04:52:45;;;;;;;;;;;;;;;21.61;54.94;95880.50;10492572;28;1959;-62
2023/06/23 04:57:45;;;;;;;;;;;;;;;21.62;55.68;95887.34;10485024;28;1958;-62
2023/06/23 05:02:46;;;;;;;;;;;;;;;21.63;55.88;95896.84;10504023;28;1943;-62
2023/06/23 05:07:48;;;;;;;;;;;;;;;21.57;57.07;95892.69;10498219;28;1987;-62
2023/06/23 05:12:48;;;;;;;;;;;;;;;21.52;57.97;95882.16;10498338;28;1906;-62
2023/06/23 05:17:49;;;;;;;;;;;;;;;21.66;57.03;95894.44;10460083;28;1879;-63
2023/06/23 05:22:50;;;;;;;;;;;;;;;21.85;56.84;95897.19;10498242;28;1858;-63
2023/06/23 05:27:57;;;;;;;;;;;;;;;21.98;56.62;95919.53;10498554;28;1905;-62
2023/06/23 05:32:57;;;;;;;;;;;;;;;22.08;56.51;95916.78;10483987;28;1962;-62
2023/06/23 05:37:59;;;;;;;;;;;;;;;22.18;56.28;95922.75;10486453;28;2000;-62
2023/06/23 05:42:59;;;;;;;;;;;;;;;22.27;56.17;95926.38;10504421;28;1874;-63
2023/06/23 05:48:04;;;;;;;;;;;;;;;22.32;56.03;95944.00;10504129;28;1922;-63
2023/06/23 05:53:08;;;;;;;;;;;;;;;22.36;56.10;95958.25;10474766;28;1918;-63
2023/06/23 05:58:09;;;;;;;;;;;;;;;22.38;55.79;95970.09;10507605;28;1895;-61
2023/06/23 06:03:10;;;;;;;;;;;;;;;22.19;56.03;95987.72;10508004;28;1998;-61
2023/06/23 06:08:11;;;;;;;;;;;;;;;22.11;56.48;95998.09;10494707;28;1748;-61
2023/06/23 06:13:11;;;;;;;;;;;;;;;22.22;56.47;96010.13;10502328;28;1918;-62
2023/06/23 06:18:12;;;;;;;;;;;;;;;22.19;56.58;96015.97;10488769;28;2065;-62
2023/06/23 06:23:12;;;;;;;;;;;;;;;22.15;56.72;96041.34;10503373;28;1842;-62
2023/06/23 06:28:12;;;;;;;;;;;;;;;22.24;56.30;96047.59;10485601;28;2415;-62
2023/06/23 06:33:13;;;;;;;;;;;;;;;22.14;56.79;96069.59;10476607;28;1976;-61
2023/06/23 06:38:13;;;;;;;;;;;;;;;22.23;56.57;96085.66;10503516;28;1839;-65
2023/06/23 06:43:13;;;;;;;;;;;;;;;22.27;56.46;96084.03;10491558;28;4453;-63
2023/06/23 06:48:13;;;;;;;;;;;;;;;22.45;55.83;96094.72;10499394;28;1858;-66
2023/06/23 06:53:14;;;;;;;;;;;;;;;22.56;55.63;96093.56;10504333;28;1918;-64
2023/06/23 06:58:15;;;;;;;;;;;;;;;22.65;55.38;96088.47;10499162;28;1815;-65
2023/06/23 07:03:15;;;;;;;;;;;;;;;22.74;55.13;96096.59;10492102;28;1882;-64
2023/06/23 07:08:15;;;;;;;;;;;;;;;22.82;55.07;96102.06;10505437;28;1890;-64
2023/06/23 07:13:16;;;;;;;;;;;;;;;22.87;55.04;96095.94;10491901;28;1944;-65
2023/06/23 07:18:16;;;;;;;;;;;;;;;22.93;55.02;96103.56;10499614;28;1864;-64
2023/06/23 07:23:16;;;;;;;;;;;;;;;22.98;54.74;96106.13;10504477;28;1955;-64
2023/06/23 07:28:17;;;;;;;;;;;;;;;23.04;54.61;96114.81;10501625;28;1839;-65
2023/06/23 07:33:17;;;;;;;;;;;;;;;23.08;54.58;96110.53;10500513;28;1944;-66
2023/06/23 07:38:17;;;;;;;;;;;;;;;23.12;54.63;96122.91;10488740;28;1847;-66
2023/06/23 07:43:18;;;;;;;;;;;;;;;23.16;54.48;96128.44;10494111;28;4343;-64
2023/06/23 07:48:18;;;;;;;;;;;;;;;23.20;54.29;96130.25;10494143;28;1874;-65
2023/06/23 07:53:18;;;;;;;;;;;;;;;23.24;54.17;96135.75;10495458;28;1961;-64
2023/06/23 07:58:18;;;;;;;;;;;;;;;23.27;53.80;96137.81;10496650;28;1902;-68
2023/06/23 08:03:19;;;;;;;;;;;;;;;23.31;53.79;96146.78;10491215;28;1882;-63
2023/06/23 08:08:19;;;;;;;;;;;;;;;23.30;53.75;96153.94;10496473;28;2037;-63
2023/06/23 08:13:20;;;;;;;;;;;;;;;23.37;53.84;96150.97;10497728;28;1906;-61
2023/06/23 08:18:20;;;;;;;;;;;;;;;23.39;53.96;96157.56;10492886;28;1932;-63
2023/06/23 08:23:20;;;;;;;;;;;;;;;23.42;53.68;96154.38;10494700;28;1881;-64
2023/06/23 08:28:20;;;;;;;;;;;;;;;23.46;53.36;96162.53;10485759;28;1984;-62
2023/06/23 08:33:21;;;;;;;;;;;;;;;23.47;53.41;96164.13;10484607;28;1977;-65
2023/06/23 08:38:22;;;;;;;;;;;;;;;23.50;53.42;96171.47;10487896;28;1890;-64
2023/06/23 08:43:28;;;;;;;;;;;;;;;23.53;53.21;96184.16;10495227;28;1880;-63
2023/06/23 08:48:29;;;;;;;;;;;;;;;23.55;53.22;96187.31;10489713;28;1905;-61
2023/06/23 08:53:29;;;;;;;;;;;;;;;23.57;53.14;96187.81;10494730;28;1909;-63
2023/06/23 08:58:29;;;;;;;;;;;;;;;23.59;52.82;96192.81;10486152;28;1894;-64
2023/06/23 09:03:30;;;;;;;;;;;;;;;23.60;52.85;96192.53;10494040;28;2137;-64
2023/06/23 09:08:30;;;;;;;;;;;;;;;23.62;52.63;96185.09;10502356;28;1896;-64
2023/06/23 09:13:34;;;;;;;;;;;;;;;23.64;52.85;96193.53;10472535;28;2092;-65
2023/06/23 09:18:38;;;;;;;;;;;;;;;23.68;52.69;96199.06;10490201;28;2192;-64
2023/06/23 09:23:39;;;;;;;;;;;;;;;23.70;52.63;96196.94;10496353;28;2045;-64
2023/06/23 09:28:39;;;;;;;;;;;;;;;23.69;52.04;96190.84;10509435;28;1931;-64
2023/06/23 09:33:50;;;;;;;;;;;;;;;23.69;51.34;96184.75;10502347;28;1890;-62
2023/06/23 09:38:52;;;;;;;;;;;;;;;23.67;50.83;96165.72;10495979;28;1811;-65
2023/06/23 09:43:52;;;;;;;;;;;;;;;23.67;51.10;96161.22;10484321;28;1882;-64
2023/06/23 09:48:53;;;;;;;;;;;;;;;23.68;50.82;96151.44;10498198;28;1471;-62
2023/06/23 09:53:53;;;;;;;;;;;;;;;23.69;50.19;96160.94;10483673;28;1963;-64
2023/06/23 09:58:54;;;;;;;;;;;;;;;23.70;50.62;96157.22;10481009;28;1830;-64
2023/06/23 10:03:54;;;;;;;;;;;;;;;23.69;50.42;96153.78;10492022;28;1903;-64
2023/06/23 10:08:55;;;;;;;;;;;;;;;23.71;50.28;96145.56;10483708;28;2306;-64
2023/06/23 10:13:57;;;;;;;;;;;;;;;23.73;50.24;96144.22;10474718;28;2253;-65
2023/06/23 10:18:57;;;;;;;;;;;;;;;23.74;50.01;96137.81;10487726;28;2086;-65
2023/06/23 10:23:59;;;;;;;;;;;;;;;23.75;50.21;96139.41;10509202;28;1983;-64
2023/06/23 10:28:59;;;;;;;;;;;;;;;23.78;50.55;96144.13;10519053;28;1917;-63
2023/06/23 10:34:00;;;;;;;;;;;;;;;23.78;50.15;96146.78;10488978;28;1981;-66
2023/06/23 10:39:02;;;;;;;;;;;;;;;23.80;50.06;96141.97;10505936;28;1933;-63
2023/06/23 10:44:03;;;;;;;;;;;;;;;23.82;49.86;96150.44;10504962;28;1885;-65
2023/06/23 10:49:04;;;;;;;;;;;;;;;23.85;49.86;96146.44;10504932;28;2062;-66
2023/06/23 10:54:07;;;;;;;;;;;;;;;23.86;49.71;96158.59;10516006;28;1958;-68
2023/06/23 10:59:27;;;;;;;;;;;;;;;23.90;49.87;96159.63;10499428;28;1900;-66
2023/06/23 11:04:28;;;;;;;;;;;;;;;23.91;50.19;96167.25;10501383;28;1948;-68
2023/06/23 11:09:58;;;;;;;;;;;;;;;23.94;50.14;96179.16;10497116;28;2449;-68
2023/06/23 11:15:12;;;;;;;;;;;;;;;23.95;49.94;96194.75;10486231;28;1937;-68
2023/06/23 11:20:19;;;;;;;;;;;;;;;23.97;49.78;96170.63;10502948;28;1875;-69
2023/06/23 11:25:22;;;;;;;;;;;;;;;24.00;49.97;96181.47;10501726;28;1852;-69
2023/06/23 11:30:23;;;;;;;;;;;;;;;24.02;49.58;96176.66;10501937;28;1912;-69
2023/06/23 11:35:23;;;;;;;;;;;;;;;24.04;49.99;96189.66;10484235;28;1907;-67
2023/06/23 11:40:23;;;;;;;;;;;;;;;24.06;49.96;96185.66;10492537;28;1866;-65
2023/06/23 11:45:23;;;;;;;;;;;;;;;24.09;50.11;96181.66;10508909;28;4146;-67
2023/06/23 11:50:24;;;;;;;;;;;;;;;24.10;50.35;96193.78;10493757;28;2008;-66
2023/06/23 11:55:26;;;;;;;;;;;;;;;24.10;49.71;96184.00;10494636;28;1908;-68
2023/06/23 12:00:26;;;;;;;;;;;;;;;24.07;49.13;96181.13;10490831;28;1831;-67
2023/06/23 12:05:27;;;;;;;;;;;;;;;24.05;49.37;96186.69;10495907;28;1824;-65
2023/06/23 12:10:28;;;;;;;;;;;;;;;24.06;49.28;96179.56;10495747;28;1895;-66
2023/06/23 12:15:29;;;;;;;;;;;;;;;24.05;49.43;96173.47;10486162;28;1818;-66
2023/06/23 12:20:29;;;;;;;;;;;;;;;24.05;49.57;96176.09;10483283;28;1944;-66
2023/06/23 12:25:33;;;;;;;;;;;;;;;24.06;49.21;96179.56;10495062;28;1905;-65
2023/06/23 12:30:43;;;;;;;;;;;;;;;24.06;48.88;96190.16;10495735;28;1926;-65
2023/06/23 12:36:00;;;;;;;;;;;;;;;24.07;49.09;96187.22;10482683;28;1893;-65
2023/06/23 12:41:16;;;;;;;;;;;;;;;24.07;48.72;96171.31;10495145;28;4387;-64
2023/06/23 12:46:16;;;;;;;;;;;;;;;24.07;48.88;96166.00;10495547;28;1795;-66
2023/06/23 12:51:17;;;;;;;;;;;;;;;24.06;48.11;96159.16;10496476;28;1953;-65
2023/06/23 12:56:17;;;;;;;;;;;;;;;24.07;48.64;96163.38;10494623;28;1839;-65
2023/06/23 13:01:17;;;;;;;;;;;;;;;24.08;48.31;96178.19;10491306;28;2247;-65
2023/06/23 13:06:18;;;;;;;;;;;;;;;24.05;47.08;96192.00;10484344;28;1981;-68
2023/06/23 13:11:18;;;;;;;;;;;;;;;24.06;47.80;96174.25;10497446;28;2025;-68
2023/06/23 13:16:18;;;;;;;;;;;;;;;24.04;47.19;96179.06;10487117;28;1898;-67
2023/06/23 13:21:19;;;;;;;;;;;;;;;24.03;47.18;96172.97;10501285;28;1921;-68
2023/06/23 13:26:20;;;;;;;;;;;;;;;24.06;47.06;96179.56;10504033;28;1870;-67
2023/06/23 13:31:20;;;;;;;;;;;;;;;24.06;47.47;96177.69;10487776;28;1961;-67
2023/06/23 13:36:20;;;;;;;;;;;;;;;24.09;47.17;96160.47;10493684;28;2127;-67
2023/06/23 13:41:21;;;;;;;;;;;;;;;24.10;47.24;96160.16;10492159;28;4380;-66
2023/06/23 13:46:21;;;;;;;;;;;;;;;24.11;47.07;96169.66;10497035;28;1901;-66
2023/06/23 13:51:21;;;;;;;;;;;;;;;24.12;46.68;96170.47;10504946;28;1902;-66
2023/06/23 13:56:22;;;;;;;;;;;;;;;24.10;46.65;96165.47;10500863;28;1915;-66
2023/06/23 14:01:22;;;;;;;;;;;;;;;24.13;46.45;96190.59;10498512;28;2348;-65
2023/06/23 14:06:22;;;;;;;;;;;;;;;24.09;46.29;96190.34;10505988;28;1919;-66
2023/06/23 14:11:23;;;;;;;;;;;;;;;24.10;46.33;96181.34;10507627;28;1940;-66
2023/06/23 14:16:23;;;;;;;;;;;;;;;24.11;46.24;96209.41;10506529;28;2087;-67
2023/06/23 14:21:23;;;;;;;;;;;;;;;24.13;46.02;96225.03;10502475;28;1910;-67
2023/06/23 14:26:23;;;;;;;;;;;;;;;24.10;45.64;96221.06;10498187;28;1882;-66
2023/06/23 14:31:24;;;;;;;;;;;;;;;24.09;45.40;96231.97;10503689;28;1922;-65
2023/06/23 14:36:24;;;;;;;;;;;;;;;24.10;45.62;96233.53;10493352;28;1894;-64
2023/06/23 14:41:24;;;;;;;;;;;;;;;24.12;46.11;96232.19;10495345;28;4580;-66
2023/06/23 14:46:25;;;;;;;;;;;;;;;24.17;46.27;96237.38;10498489;28;2021;-61
2023/06/23 14:51:25;;;;;;;;;;;;;;;24.20;46.41;96238.69;10508739;28;1931;-64
2023/06/23 14:56:25;;;;;;;;;;;;;;;24.23;46.98;96238.91;10510085;28;2208;-63
2023/06/23 15:01:26;;;;;;;;;;;;;;;24.25;46.88;96263.25;10506155;28;1894;-62
2023/06/23 15:06:26;;;;;;;;;;;;;;;24.24;46.91;96277.59;10509948;28;1890;-63
2023/06/23 15:11:27;;;;;;;;;;;;;;;24.26;46.95;96282.59;10508865;28;1926;-63
2023/06/23 15:16:27;;;;;;;;;;;;;;;24.28;46.55;96277.78;10498042;28;1890;-63
2023/06/23 15:21:28;;;;;;;;;;;;;;;24.27;46.59;96286.03;10507070;28;1931;-63
2023/06/23 15:26:29;;;;;;;;;;;;;;;24.27;46.52;96286.03;10491474;28;1838;-63
2023/06/23 15:31:29;;;;;;;;;;;;;;;24.27;46.57;96286.81;10512346;28;1977;-63
2023/06/23 15:36:29;;;;;;;;;;;;;;;24.28;46.56;96287.63;10511455;28;1959;-63
2023/06/23 15:41:29;;;;;;;;;;;;;;;24.25;46.44;96286.31;10509292;28;1925;-63
2023/06/23 15:46:31;;;;;;;;;;;;;;;24.25;46.44;96287.09;10507292;28;1952;-63
2023/06/23 15:51:32;;;;;;;;;;;;;;;24.25;46.35;96307.53;10505469;28;2247;-63
2023/06/23 15:56:32;;;;;;;;;;;;;;;24.22;45.88;96306.22;10508753;28;1989;-63
2023/06/23 16:01:32;;;;;;;;;;;;;;;24.22;45.31;96310.72;10509760;28;1875;-63
2023/06/23 16:06:33;;;;;;;;;;;;;;;24.21;45.69;96307.28;10514535;28;1878;-63
2023/06/23 16:11:33;;;;;;;;;;;;;;;24.21;45.62;96325.06;10511503;28;1953;-64
2023/06/23 16:16:33;;;;;;;;;;;;;;;24.21;45.68;96333.75;10510641;28;1914;-63
2023/06/23 16:21:33;;;;;;;;;;;;;;;24.20;45.31;96340.16;10528727;28;1894;-63
2023/06/23 16:26:34;;;;;;;;;;;;;;;24.19;45.52;96348.38;10511775;28;1895;-63
2023/06/23 16:31:34;;;;;;;;;;;;;;;24.19;45.48;96365.03;10508292;28;1964;-63
2023/06/23 16:36:34;;;;;;;;;;;;;;;24.18;45.19;96360.03;10507899;28;1924;-63
2023/06/23 16:41:34;;;;;;;;;;;;;;;24.18;45.04;96368.78;10499577;28;4647;-63
2023/06/23 16:46:35;;;;;;;;;;;;;;;24.16;44.94;96376.22;10507604;28;2312;-63
2023/06/23 16:51:35;;;;;;;;;;;;;;;24.14;44.75;96388.97;10504620;28;1963;-63
2023/06/23 16:56:35;;;;;;;;;;;;;;;24.12;44.37;96399.03;10514246;28;1922;-63
2023/06/23 17:01:35;;;;;;;;;;;;;;;24.13;44.45;96399.84;10506706;28;1832;-63
2023/06/23 17:06:36;;;;;;;;;;;;;;;24.13;44.70;96421.03;10504964;28;1838;-63
2023/06/23 17:11:36;;;;;;;;;;;;;;;24.12;44.53;96417.59;10502237;28;1886;-64
2023/06/23 17:16:36;;;;;;;;;;;;;;;24.12;44.73;96412.28;10509913;28;1811;-63
2023/06/23 17:21:37;;;;;;;;;;;;;;;24.11;44.57;96410.69;10497649;28;2023;-64
2023/06/23 17:26:38;;;;;;;;;;;;;;;24.11;44.45;96423.94;10500109;28;1941;-63
2023/06/23 17:31:39;;;;;;;;;;;;;;;24.12;44.50;96420.22;10499532;28;2016;-63
2023/06/23 17:36:40;;;;;;;;;;;;;;;24.14;44.86;96420.75;10503865;28;2007;-63
2023/06/23 17:41:41;;;;;;;;;;;;;;;24.14;44.61;96431.34;10504981;28;4426;-63
2023/06/23 17:46:41;;;;;;;;;;;;;;;24.15;44.72;96435.56;10507512;28;2398;-63
2023/06/23 17:51:41;;;;;;;;;;;;;;;24.15;44.44;96424.97;10505360;28;1984;-63
2023/06/23 17:56:41;;;;;;;;;;;;;;;24.16;44.68;96420.47;10502617;28;1916;-63
2023/06/23 18:01:42;;;;;;;;;;;;;;;24.16;44.42;96428.41;10516651;28;1965;-63
2023/06/23 18:06:42;;;;;;;;;;;;;;;24.13;44.42;96432.41;10514690;28;1981;-63
2023/06/23 18:11:42;;;;;;;;;;;;;;;24.16;44.53;96431.06;10502648;28;1905;-64
2023/06/23 18:16:43;;;;;;;;;;;;;;;24.17;44.74;96435.28;10506092;28;1882;-64
2023/06/23 18:21:43;;;;;;;;;;;;;;;24.18;44.74;96434.22;10499146;28;1985;-63
2023/06/23 18:26:45;;;;;;;;;;;;;;;24.19;44.68;96433.91;10502178;28;2004;-64
2023/06/23 18:32:12;;;;;;;;;;;;;;;24.19;44.67;96441.88;10494459;28;2034;-63
2023/06/23 18:37:09;;;;;;;;;;;;;;;24.20;44.95;96447.97;10504901;28;2135;-63
2023/06/23 18:42:09;;;;;;;;;;;;;;;24.20;44.67;96456.72;10505771;28;4683;-64
2023/06/23 18:47:10;;;;;;;;;;;;;;;24.22;44.86;96453.78;10512059;28;1946;-64
2023/06/23 18:52:10;;;;;;;;;;;;;;;24.23;44.98;96450.06;10507296;28;1944;-64
2023/06/23 18:57:10;;;;;;;;;;;;;;;24.24;44.88;96451.63;10503192;28;1879;-64
2023/06/23 19:02:10;;;;;;;;;;;;;;;24.24;45.09;96451.63;10514752;28;2020;-64
2023/06/23 19:07:11;;;;;;;;;;;;;;;24.25;45.33;96448.69;10509824;28;2011;-64
2023/06/23 19:12:11;;;;;;;;;;;;;;;24.27;45.30;96460.88;10508251;28;1934;-63
2023/06/23 19:17:12;;;;;;;;;;;;;;;24.28;45.57;96451.88;10490304;28;1929;-64
2023/06/23 19:22:12;;;;;;;;;;;;;;;24.28;45.40;96446.59;10532952;28;2020;-64
2023/06/23 19:27:13;;;;;;;;;;;;;;;24.31;45.28;96460.06;10514809;28;1842;-64
2023/06/23 19:32:13;;;;;;;;;;;;;;;24.32;45.34;96482.06;10521485;28;1886;-63
2023/06/23 19:37:13;;;;;;;;;;;;;;;24.32;45.38;96484.69;10515909;28;2457;-64
2023/06/23 19:42:14;;;;;;;;;;;;;;;24.32;45.51;96490.00;10516734;28;4524;-63
2023/06/23 19:47:14;;;;;;;;;;;;;;;24.34;45.46;96493.16;10511070;28;1846;-62
2023/06/23 19:52:14;;;;;;;;;;;;;;;24.33;45.43;96497.66;10513511;28;1887;-64
2023/06/23 19:57:14;;;;;;;;;;;;;;;24.34;45.37;96493.16;10517620;28;1830;-63
2023/06/23 20:02:15;;;;;;;;;;;;;;;24.34;45.55;96507.19;10507365;28;1866;-64
2023/06/23 20:07:15;;;;;;;;;;;;;;;24.36;45.48;96504.28;10515776;28;1811;-64
2023/06/23 20:12:15;;;;;;;;;;;;;;;24.36;45.49;96512.22;10516132;28;2241;-64
2023/06/23 20:17:17;;;;;;;;;;;;;;;24.36;45.54;96517.53;10513085;28;1902;-64
2023/06/23 20:22:17;;;;;;;;;;;;;;;24.36;45.73;96525.47;10511708;28;1877;-64
2023/06/23 20:27:18;;;;;;;;;;;;;;;24.37;45.57;96527.03;10511261;28;1882;-64
2023/06/23 20:32:18;;;;;;;;;;;;;;;24.38;45.46;96529.41;10514873;28;2446;-64
2023/06/23 20:37:18;;;;;;;;;;;;;;;24.38;45.82;96525.97;10510593;28;1918;-64
2023/06/23 20:42:18;;;;;;;;;;;;;;;24.39;45.83;96522.25;10508009;28;4493;-63
2023/06/23 20:47:19;;;;;;;;;;;;;;;24.40;45.60;96537.09;10507714;28;1902;-64
2023/06/23 20:52:19;;;;;;;;;;;;;;;24.40;45.65;96550.34;10495580;28;1905;-64
2023/06/23 20:57:20;;;;;;;;;;;;;;;24.40;45.57;96531.78;10503355;28;2077;-64
2023/06/23 21:02:20;;;;;;;;;;;;;;;24.41;45.57;96542.09;10511547;28;1863;-63
2023/06/23 21:07:20;;;;;;;;;;;;;;;24.41;45.80;96546.59;10510936;28;1878;-64
2023/06/23 21:12:21;;;;;;;;;;;;;;;24.42;45.67;96548.19;10506784;28;1914;-63
2023/06/23 21:17:21;;;;;;;;;;;;;;;24.42;45.80;96554.28;10508174;28;1981;-64
2023/06/23 21:22:21;;;;;;;;;;;;;;;24.42;45.81;96545.56;10509753;28;1997;-64
2023/06/23 21:27:22;;;;;;;;;;;;;;;24.43;45.78;96549.75;10505064;28;1918;-64
2023/06/23 21:32:23;;;;;;;;;;;;;;;24.43;45.57;96547.13;10495247;28;2845;-63
2023/06/23 21:37:23;;;;;;;;;;;;;;;24.43;45.84;96539.16;10500216;28;1910;-64
2023/06/23 21:42:23;;;;;;;;;;;;;;;24.44;45.65;96551.38;10504062;28;4470;-64
2023/06/23 21:47:24;;;;;;;;;;;;;;;24.42;45.52;96551.63;10514698;28;2001;-64
2023/06/23 21:52:24;;;;;;;;;;;;;;;24.43;45.53;96547.91;10508981;28;2120;-64
2023/06/23 21:57:24;;;;;;;;;;;;;;;24.44;45.79;96548.72;10521836;28;1967;-64
2023/06/23 22:02:24;;;;;;;;;;;;;;;24.44;45.78;96552.13;10506041;28;1874;-64
2023/06/23 22:07:25;;;;;;;;;;;;;;;24.45;45.88;96566.19;10508341;28;1940;-63
2023/06/23 22:12:25;;;;;;;;;;;;;;;24.44;45.77;96549.47;10508508;28;1918;-64
2023/06/23 22:17:25;;;;;;;;;;;;;;;24.45;45.75;96553.72;10514130;28;1966;-64
2023/06/23 22:22:26;;;;;;;;;;;;;;;24.45;45.91;96558.22;10514838;28;1887;-64
2023/06/23 22:27:28;;;;;;;;;;;;;;;24.46;45.60;96565.88;10516833;28;2356;-63
2023/06/23 22:32:28;;;;;;;;;;;;;;;24.46;45.89;96559.81;10508460;28;2014;-64
2023/06/23 22:37:28;;;;;;;;;;;;;;;24.45;45.69;96553.72;10525077;28;1894;-64
2023/06/23 22:42:29;;;;;;;;;;;;;;;24.46;45.62;96570.44;10507722;28;4508;-63
2023/06/23 22:47:31;;;;;;;;;;;;;;;24.46;45.72;96579.16;10514573;28;1871;-64
2023/06/23 22:52:31;;;;;;;;;;;;;;;24.46;45.71;96573.84;10513899;28;1976;-64
2023/06/23 22:57:32;;;;;;;;;;;;;;;24.47;45.64;96569.34;10490594;28;2018;-64
2023/06/23 23:02:32;;;;;;;;;;;;;;;24.47;45.87;96579.94;10511091;28;2210;-64
2023/06/23 23:07:32;;;;;;;;;;;;;;;24.47;45.92;96591.34;10512115;28;1879;-64
2023/06/23 23:12:32;;;;;;;;;;;;;;;24.47;45.95;96585.25;10511024;28;1898;-64
2023/06/23 23:17:33;;;;;;;;;;;;;;;24.47;45.73;96586.03;10510349;28;1910;-64
2023/06/23 23:22:33;;;;;;;;;;;;;;;24.47;45.76;96594.00;10509165;28;2316;-64
2023/06/23 23:27:37;;;;;;;;;;;;;;;24.47;45.85;96585.25;10508980;28;1910;-64
2023/06/23 23:32:37;;;;;;;;;;;;;;;24.48;45.56;96581.53;10508214;28;1930;-64
2023/06/23 23:37:40;;;;;;;;;;;;;;;24.48;45.79;96570.94;10508969;28;1898;-64
2023/06/23 23:42:41;;;;;;;;;;;;;;;24.48;45.64;96568.28;10502596;28;4517;-64
2023/06/23 23:47:41;;;;;;;;;;;;;;;24.47;45.66;96551.59;10513754;28;1968;-64
2023/06/23 23:52:42;;;;;;;;;;;;;;;24.49;45.66;96561.91;10508543;28;1926;-64
2023/06/23 23:57:42;;;;;;;;;;;;;;;24.48;45.36;96566.44;10512168;28;1878;-64
